Celebrity Century — 9HJI9 — position and weather

sailwx.info

Track history (hours):
 
Tides and Currents Weather Stations Pressure Air Temp Water Temp Dewpoint Dewpoint Depression Visibility Wind Speed Wind Dir Waves Ship Positions

Celebrity Century

Last reported at 2019-Jul-20 13:26 UTC. Time now 2019-Jul-20 13:52 UTC.
Position N 37°27' E 025°19'.

Length 251 m; draft 8 m.

Type: Ship. MMSI: 249054000.

Date/timePositionNaut miles runAvg speedWind from/ knotsBaromVisibWave heightAir tempDewpointWater temp
2019-Jul-20 13:26N 37°27' E 025°19'0 0.0
2019-Jul-20 12:56N 37°27' E 025°19'0 0.0
2019-Jul-20 12:26N 37°27' E 025°19'0 0.0
2019-Jul-20 11:56N 37°27' E 025°19'0 0.0
2019-Jul-20 11:26N 37°27' E 025°19'0 0.0
2019-Jul-20 10:56N 37°27' E 025°19'0 0.0
2019-Jul-20 10:26N 37°27' E 025°19'0 0.0
2019-Jul-20 09:56N 37°27' E 025°19'0 0.0
2019-Jul-20 09:26N 37°27' E 025°19'0 0.0
2019-Jul-20 08:56N 37°27' E 025°19'0 0.0
2019-Jul-20 08:26N 37°27' E 025°19'0 0.0
2019-Jul-20 07:56N 37°27' E 025°19'0 0.0
2019-Jul-20 07:26N 37°27' E 025°19'0 0.0
2019-Jul-20 06:56N 37°27' E 025°19'0 0.0
2019-Jul-20 06:14N 37°27' E 025°19'0 0.0
2019-Jul-20 05:44N 37°27' E 025°19'0 0.0
2019-Jul-20 05:26N 37°27' E 025°19'0 0.1
2019-Jul-20 05:00N 37°27' E 025°20'0 0.4
2019-Jul-20 04:30N 37°27' E 025°19'3 6.4
2019-Jul-20 04:00N 37°27' E 025°15'511.0
2019-Jul-20 03:31N 37°26' E 025°09'5 9.8
2019-Jul-20 03:00N 37°21' E 025°06'713.1
2019-Jul-20 02:28N 37°15' E 025°02'613.5
2019-Jul-20 02:00N 37°09' E 024°59'420 9.2
2019-Jul-18 04:33N 37°43' E 016°12'118.8
2019-Jul-18 04:30N 37°43' E 016°11'918.7
2019-Jul-18 04:00N 37°46' E 015°60'918.3
2019-Jul-18 03:30N 37°49' E 015°49'917.9
2019-Jul-18 03:00N 37°54' E 015°39'918.2
2019-Jul-18 02:30N 38°02' E 015°35'918.8
2019-Jul-18 02:00N 38°12' E 015°36'817.0
2019-Jul-18 01:30N 38°19' E 015°40'1019.2
2019-Jul-18 01:00N 38°28' E 015°35'1019.0
2019-Jul-18 00:30N 38°36' E 015°29'918.6
2019-Jul-18 00:00N 38°45' E 015°24'918.4
2019-Jul-17 23:30N 38°53' E 015°18'7218.7
2019-Jul-17 19:41N 39°55' E 014°32'519.2
2019-Jul-17 19:26N 39°59' E 014°29'819.2
2019-Jul-17 19:00N 40°06' E 014°24'919.1
2019-Jul-17 18:30N 40°15' E 014°18'1019.2
2019-Jul-17 18:00N 40°22' E 014°11'918.9
2019-Jul-17 17:30N 40°32' E 014°07'918.2
2019-Jul-17 17:00N 40°40' E 014°12'815.7
2019-Jul-17 16:30N 40°47' E 014°16'3 5.7
2019-Jul-17 15:58N 40°50' E 014°16'0 0.0
2019-Jul-17 15:28N 40°50' E 014°16'0 0.0
2019-Jul-17 14:58N 40°50' E 014°16'0 0.0
2019-Jul-17 14:28N 40°50' E 014°16'0 0.0
2019-Jul-17 13:58N 40°50' E 014°16'0 0.0
2019-Jul-17 13:28N 40°50' E 014°16'0 0.0
2019-Jul-17 12:58N 40°50' E 014°16'0 0.0
2019-Jul-17 12:28N 40°50' E 014°16'0 0.0
2019-Jul-17 11:58N 40°50' E 014°16'0 0.0
2019-Jul-17 11:28N 40°50' E 014°16'0 0.0
2019-Jul-17 10:58N 40°50' E 014°16'0 0.0
2019-Jul-17 10:28N 40°50' E 014°16'0 0.0
2019-Jul-17 09:58N 40°50' E 014°16'0 0.0
2019-Jul-17 09:28N 40°50' E 014°16'0 0.0
2019-Jul-17 08:58N 40°50' E 014°16'0 0.0
2019-Jul-17 08:28N 40°50' E 014°16'0 0.0
2019-Jul-17 07:58N 40°50' E 014°16'0 0.0
2019-Jul-17 07:28N 40°50' E 014°16'0 0.0
2019-Jul-17 06:58N 40°50' E 014°16'0 0.0
2019-Jul-17 06:28N 40°50' E 014°16'0 0.0
2019-Jul-17 05:58N 40°50' E 014°16'0 0.0
2019-Jul-17 05:28N 40°50' E 014°16'0 0.0
2019-Jul-17 04:58N 40°50' E 014°16'0 0.0
2019-Jul-17 04:28N 40°50' E 014°16'0 0.0
2019-Jul-17 03:58N 40°50' E 014°16'0 0.7
2019-Jul-17 03:30N 40°50' E 014°16'2 3.6
2019-Jul-17 03:01N 40°49' E 014°17'4 8.5
2019-Jul-17 02:30N 40°45' E 014°14'5 9.6
2019-Jul-17 02:00N 40°42' E 014°09'713.5
2019-Jul-17 01:31N 40°38' E 014°02'714.0
2019-Jul-17 01:00N 40°34' E 013°55'714.0
2019-Jul-17 00:31N 40°30' E 013°48'713.2
2019-Jul-17 00:01N 40°29' E 013°39'714.8
2019-Jul-16 23:30N 40°31' E 013°30'714.9
2019-Jul-16 23:01N 40°33' E 013°20'6814.6
2019-Jul-16 18:22N 40°58' E 011°57'10615.1
2019-Jul-16 11:22N 41°20' E 009°39'615.5
2019-Jul-16 11:00N 41°21' E 009°32'714.6
2019-Jul-16 10:30N 41°21' E 009°22'713.9
2019-Jul-16 10:01N 41°17' E 009°14'29618.2
2019-Jul-15 17:43N 41°16' E 002°40'419.0
2019-Jul-15 17:30N 41°16' E 002°35'918.8
2019-Jul-15 17:00N 41°15' E 002°22'815.2
2019-Jul-15 16:30N 41°15' E 002°12'510.5
2019-Jul-15 16:00N 41°20' E 002°10'1 2.4
2019-Jul-15 15:26N 41°22' E 002°11'0 0.0
2019-Jul-15 14:56N 41°22' E 002°11'0 0.0
2019-Jul-15 14:26N 41°22' E 002°11'0 0.0
2019-Jul-15 13:56N 41°22' E 002°11'0 0.0
2019-Jul-15 13:26N 41°22' E 002°11'0 0.0
2019-Jul-15 12:56N 41°22' E 002°11'0 0.0
2019-Jul-15 12:26N 41°22' E 002°11'0 0.0
2019-Jul-15 11:56N 41°22' E 002°11'0 0.0
2019-Jul-15 11:26N 41°22' E 002°11'0 0.0
2019-Jul-15 10:56N 41°22' E 002°11'0 0.0
2019-Jul-15 10:26N 41°22' E 002°11'0 0.0
2019-Jul-15 09:56N 41°22' E 002°11'0 0.0
2019-Jul-15 09:26N 41°22' E 002°11'0 0.0
2019-Jul-15 08:56N 41°22' E 002°11'0 0.0
2019-Jul-15 08:26N 41°22' E 002°11'0 0.0
2019-Jul-15 07:56N 41°22' E 002°11'0 0.0
2019-Jul-15 07:26N 41°22' E 002°11'0 0.0
2019-Jul-15 06:56N 41°22' E 002°11'0 0.0
2019-Jul-15 06:26N 41°22' E 002°11'0 0.0
2019-Jul-15 05:56N 41°22' E 002°11'0 0.1
2019-Jul-15 05:31N 41°22' E 002°11'1 2.2
2019-Jul-15 05:00N 41°21' E 002°10'3 6.6
2019-Jul-15 04:30N 41°17' E 002°11'4 8.1
2019-Jul-15 04:01N 41°17' E 002°16'510.0
2019-Jul-15 03:31N 41°18' E 002°23'612.2
2019-Jul-15 03:00N 41°20' E 002°30'917.4
2019-Jul-15 02:31N 41°22' E 002°42'917.9
2019-Jul-15 02:00N 41°26' E 002°52'918.0
2019-Jul-15 01:30N 41°31' E 003°02'917.7
2019-Jul-15 01:00N 41°36' E 003°13'1117.8
2019-Jul-15 00:24N 41°42' E 003°25'13818.7
2019-Jul-14 17:02N 43°01' E 005°57'411.8
2019-Jul-14 16:41N 43°05' E 005°57'1 6.8
2019-Jul-14 16:30N 43°05' E 005°56'2 2.9
2019-Jul-14 15:55N 43°07' E 005°56'0 0.0
2019-Jul-14 15:25N 43°07' E 005°56'0 0.0
2019-Jul-14 14:58N 43°07' E 005°56'0 0.0
2019-Jul-14 14:28N 43°07' E 005°56'0 0.0
2019-Jul-14 13:58N 43°07' E 005°56'0 0.0
2019-Jul-14 13:25N 43°07' E 005°56'0 0.0
2019-Jul-14 12:58N 43°07' E 005°56'0 0.0
2019-Jul-14 12:28N 43°07' E 005°56'0 0.0
2019-Jul-14 11:55N 43°07' E 005°56'0 0.0
2019-Jul-14 11:25N 43°07' E 005°56'0 0.0
2019-Jul-14 10:58N 43°07' E 005°56'0 0.0
2019-Jul-14 10:25N 43°07' E 005°56'0 0.0
2019-Jul-14 09:55N 43°07' E 005°56'0 0.0
2019-Jul-14 09:28N 43°07' E 005°56'0 0.0
2019-Jul-14 08:58N 43°07' E 005°56'0 0.0
2019-Jul-14 08:25N 43°07' E 005°56'0 0.0
2019-Jul-14 07:58N 43°07' E 005°56'0 0.0
2019-Jul-14 07:25N 43°07' E 005°56'0 0.0
2019-Jul-14 06:58N 43°07' E 005°56'0 0.0
2019-Jul-14 06:30N 43°07' E 005°56'0 0.8
2019-Jul-14 06:01N 43°07' E 005°55'2 4.4
2019-Jul-14 05:31N 43°05' E 005°58'3913.0
2019-Jul-14 02:33N 42°57' E 006°49'117.4
2019-Jul-14 02:30N 42°57' E 006°50'917.0
2019-Jul-14 02:00N 42°59' E 007°02'816.8
2019-Jul-14 01:30N 42°60' E 007°13'816.9
2019-Jul-14 01:00N 43°01' E 007°24'816.9
2019-Jul-14 00:31N 43°03' E 007°36'817.0
2019-Jul-14 00:01N 43°04' E 007°47'918.3
2019-Jul-13 23:30N 43°05' E 007°60'919.0
2019-Jul-13 23:00N 43°07' E 008°13'918.9
2019-Jul-13 22:30N 43°08' E 008°25'918.8
2019-Jul-13 22:01N 43°10' E 008°38'918.3
2019-Jul-13 21:31N 43°11' E 008°50'918.1
2019-Jul-13 21:00N 43°13' E 009°03'918.1
2019-Jul-13 20:30N 43°14' E 009°15'917.9
2019-Jul-13 20:00N 43°16' E 009°27'918.2
2019-Jul-13 19:30N 43°17' E 009°39'918.4
2019-Jul-13 19:00N 43°19' E 009°52'917.7
2019-Jul-13 18:30N 43°23' E 010°03'918.2
2019-Jul-13 18:00N 43°30' E 010°10'611.0
2019-Jul-13 17:30N 43°32' E 010°17'1 1.7
2019-Jul-13 17:00N 43°33' E 010°18'0 0.0
2019-Jul-13 16:30N 43°33' E 010°18'0 0.0
2019-Jul-13 16:00N 43°33' E 010°18'0 0.0
2019-Jul-13 15:30N 43°33' E 010°18'0 0.0
2019-Jul-13 15:00N 43°33' E 010°18'0 0.0
2019-Jul-13 14:27N 43°33' E 010°18'0 0.0
2019-Jul-13 14:00N 43°33' E 010°18'0 0.0
2019-Jul-13 13:30N 43°33' E 010°18'0 0.0
2019-Jul-13 13:00N 43°33' E 010°18'0 0.0
2019-Jul-13 12:30N 43°33' E 010°18'0 0.0
2019-Jul-13 12:00N 43°33' E 010°18'0 0.0
2019-Jul-13 11:30N 43°33' E 010°18'0 0.0
2019-Jul-13 11:00N 43°33' E 010°18'0 0.0
2019-Jul-13 10:30N 43°33' E 010°18'0 0.0
2019-Jul-13 10:00N 43°33' E 010°18'0 0.0
2019-Jul-13 09:30N 43°33' E 010°18'0 0.0
2019-Jul-13 09:00N 43°33' E 010°18'0 0.0
2019-Jul-13 08:27N 43°33' E 010°18'0 0.0
2019-Jul-13 08:00N 43°33' E 010°18'0 0.0
2019-Jul-13 07:30N 43°33' E 010°18'0 0.0
2019-Jul-13 07:00N 43°33' E 010°18'0 0.0
2019-Jul-13 06:27N 43°33' E 010°18'0 0.0
2019-Jul-13 06:00N 43°33' E 010°18'0 0.0
2019-Jul-13 05:30N 43°33' E 010°18'0 0.0
2019-Jul-13 05:00N 43°33' E 010°18'0 0.1
2019-Jul-13 04:30N 43°33' E 010°18'2 3.9
2019-Jul-13 04:00N 43°32' E 010°16'5 9.9
2019-Jul-13 03:30N 43°28' E 010°12'510.9
2019-Jul-13 03:00N 43°22' E 010°10'714.9
2019-Jul-13 02:30N 43°15' E 010°09'815.3
2019-Jul-13 02:00N 43°07' E 010°07'815.0
2019-Jul-13 01:30N 43°00' E 010°06'715.0
2019-Jul-13 01:00N 42°53' E 010°04'815.0
2019-Jul-13 00:30N 42°45' E 010°03'815.1
2019-Jul-13 00:00N 42°39' E 010°09'714.6
2019-Jul-12 23:30N 42°33' E 010°16'714.5
2019-Jul-12 23:00N 42°28' E 010°22'714.8
2019-Jul-12 22:30N 42°22' E 010°28'815.3
2019-Jul-12 21:59N 42°15' E 010°34'713.8
2019-Jul-12 21:30N 42°09' E 010°37'815.5
2019-Jul-12 21:00N 42°02' E 010°42'816.1
2019-Jul-12 20:30N 42°01' E 010°52'916.3
2019-Jul-12 19:59N 41°59' E 011°04'919.1
2019-Jul-12 19:29N 41°58' E 011°17'12 0.7
2019-Jul-12 02:44N 41°58' E 011°32'2 9.2
2019-Jul-12 02:30N 41°57' E 011°30'9 9.2
2019-Jul-12 01:29N 41°52' E 011°19'6 9.4
2019-Jul-12 00:53N 41°49' E 011°13'4 9.7
2019-Jul-12 00:30N 41°46' E 011°09'5 9.5
2019-Jul-12 00:00N 41°43' E 011°04'5 9.3
2019-Jul-11 23:26N 41°40' E 010°58'4 8.9
2019-Jul-11 22:59N 41°38' E 010°54'5 9.2
2019-Jul-11 22:30N 41°35' E 010°49'5 9.4
2019-Jul-11 21:58N 41°32' E 010°44'5 9.2
2019-Jul-11 21:27N 41°29' E 010°39'4 9.3
2019-Jul-11 21:00N 41°27' E 010°35'7 9.3
2019-Jul-11 20:13N 41°22' E 010°28'3 9.0
2019-Jul-11 19:54N 41°20' E 010°25'4 9.1
2019-Jul-11 19:30N 41°18' E 010°21'5 9.3
2019-Jul-11 19:00N 41°16' E 010°15'5 9.4
2019-Jul-11 18:30N 41°13' E 010°10'5 9.5
2019-Jul-11 18:00N 41°10' E 010°05'9 9.5
2019-Jul-11 17:02N 41°04' E 009°56'8 9.2
2019-Jul-11 16:13N 40°60' E 009°48'2 7.9
2019-Jul-11 16:00N 40°59' E 009°46'3 6.6
2019-Jul-11 15:30N 40°58' E 009°42'4 7.1
2019-Jul-11 14:53N 40°56' E 009°36'181 9.1
2019-Jul-10 18:55N 40°40' E 013°35'819.0
2019-Jul-10 18:30N 40°39' E 013°45'918.7
2019-Jul-10 18:00N 40°38' E 013°58'917.8
2019-Jul-10 17:30N 40°41' E 014°09'816.6
2019-Jul-10 17:00N 40°48' E 014°16'3 5.3
2019-Jul-10 16:30N 40°50' E 014°16'0 0.5
2019-Jul-10 16:00N 40°50' E 014°16'0 0.0
2019-Jul-10 15:30N 40°50' E 014°16'0 0.0
2019-Jul-10 15:00N 40°50' E 014°16'0 0.0
2019-Jul-10 14:30N 40°50' E 014°16'0 0.0
2019-Jul-10 14:00N 40°50' E 014°16'0 0.0
2019-Jul-10 13:30N 40°50' E 014°16'  
Track history (hours):
 
Tides and Currents Weather Stations Pressure Air Temp Water Temp Dewpoint Dewpoint Depression Visibility Wind Speed Wind Dir Waves Ship Positions

Celebrity Century

Last reported at 2019-Jul-20 13:26 UTC. Time now 2019-Jul-20 13:52 UTC.
Position N 37°27' E 025°19'.

Length 251 m; draft 8 m.

Type: Ship. MMSI: 249054000.

Date/timePositionNaut miles runAvg speedWind from/ knotsBaromVisibWave heightAir tempDewpointWater temp
2019-Jul-20 13:26N 37°27' E 025°19'0 0.0
2019-Jul-20 12:56N 37°27' E 025°19'0 0.0
2019-Jul-20 12:26N 37°27' E 025°19'0 0.0
2019-Jul-20 11:56N 37°27' E 025°19'0 0.0
2019-Jul-20 11:26N 37°27' E 025°19'0 0.0
2019-Jul-20 10:56N 37°27' E 025°19'0 0.0
2019-Jul-20 10:26N 37°27' E 025°19'0 0.0
2019-Jul-20 09:56N 37°27' E 025°19'0 0.0
2019-Jul-20 09:26N 37°27' E 025°19'0 0.0
2019-Jul-20 08:56N 37°27' E 025°19'0 0.0
2019-Jul-20 08:26N 37°27' E 025°19'0 0.0
2019-Jul-20 07:56N 37°27' E 025°19'0 0.0
2019-Jul-20 07:26N 37°27' E 025°19'0 0.0
2019-Jul-20 06:56N 37°27' E 025°19'0 0.0
2019-Jul-20 06:14N 37°27' E 025°19'0 0.0
2019-Jul-20 05:44N 37°27' E 025°19'0 0.0
2019-Jul-20 05:26N 37°27' E 025°19'0 0.1
2019-Jul-20 05:00N 37°27' E 025°20'0 0.4
2019-Jul-20 04:30N 37°27' E 025°19'3 6.4
2019-Jul-20 04:00N 37°27' E 025°15'511.0
2019-Jul-20 03:31N 37°26' E 025°09'5 9.8
2019-Jul-20 03:00N 37°21' E 025°06'713.1
2019-Jul-20 02:28N 37°15' E 025°02'613.5
2019-Jul-20 02:00N 37°09' E 024°59'420 9.2
2019-Jul-18 04:33N 37°43' E 016°12'118.8
2019-Jul-18 04:30N 37°43' E 016°11'918.7
2019-Jul-18 04:00N 37°46' E 015°60'918.3
2019-Jul-18 03:30N 37°49' E 015°49'917.9
2019-Jul-18 03:00N 37°54' E 015°39'918.2
2019-Jul-18 02:30N 38°02' E 015°35'918.8
2019-Jul-18 02:00N 38°12' E 015°36'817.0
2019-Jul-18 01:30N 38°19' E 015°40'1019.2
2019-Jul-18 01:00N 38°28' E 015°35'1019.0
2019-Jul-18 00:30N 38°36' E 015°29'918.6
2019-Jul-18 00:00N 38°45' E 015°24'918.4
2019-Jul-17 23:30N 38°53' E 015°18'7218.7
2019-Jul-17 19:41N 39°55' E 014°32'519.2
2019-Jul-17 19:26N 39°59' E 014°29'819.2
2019-Jul-17 19:00N 40°06' E 014°24'919.1
2019-Jul-17 18:30N 40°15' E 014°18'1019.2
2019-Jul-17 18:00N 40°22' E 014°11'918.9
2019-Jul-17 17:30N 40°32' E 014°07'918.2
2019-Jul-17 17:00N 40°40' E 014°12'815.7
2019-Jul-17 16:30N 40°47' E 014°16'3 5.7
2019-Jul-17 15:58N 40°50' E 014°16'0 0.0
2019-Jul-17 15:28N 40°50' E 014°16'0 0.0
2019-Jul-17 14:58N 40°50' E 014°16'0 0.0
2019-Jul-17 14:28N 40°50' E 014°16'0 0.0
2019-Jul-17 13:58N 40°50' E 014°16'0 0.0
2019-Jul-17 13:28N 40°50' E 014°16'0 0.0
2019-Jul-17 12:58N 40°50' E 014°16'0 0.0
2019-Jul-17 12:28N 40°50' E 014°16'0 0.0
2019-Jul-17 11:58N 40°50' E 014°16'0 0.0
2019-Jul-17 11:28N 40°50' E 014°16'0 0.0
2019-Jul-17 10:58N 40°50' E 014°16'0 0.0
2019-Jul-17 10:28N 40°50' E 014°16'0 0.0
2019-Jul-17 09:58N 40°50' E 014°16'0 0.0
2019-Jul-17 09:28N 40°50' E 014°16'0 0.0
2019-Jul-17 08:58N 40°50' E 014°16'0 0.0
2019-Jul-17 08:28N 40°50' E 014°16'0 0.0
2019-Jul-17 07:58N 40°50' E 014°16'0 0.0
2019-Jul-17 07:28N 40°50' E 014°16'0 0.0
2019-Jul-17 06:58N 40°50' E 014°16'0 0.0
2019-Jul-17 06:28N 40°50' E 014°16'0 0.0
2019-Jul-17 05:58N 40°50' E 014°16'0 0.0
2019-Jul-17 05:28N 40°50' E 014°16'0 0.0
2019-Jul-17 04:58N 40°50' E 014°16'0 0.0
2019-Jul-17 04:28N 40°50' E 014°16'0 0.0
2019-Jul-17 03:58N 40°50' E 014°16'0 0.7
2019-Jul-17 03:30N 40°50' E 014°16'2 3.6
2019-Jul-17 03:01N 40°49' E 014°17'4 8.5
2019-Jul-17 02:30N 40°45' E 014°14'5 9.6
2019-Jul-17 02:00N 40°42' E 014°09'713.5
2019-Jul-17 01:31N 40°38' E 014°02'714.0
2019-Jul-17 01:00N 40°34' E 013°55'714.0
2019-Jul-17 00:31N 40°30' E 013°48'713.2
2019-Jul-17 00:01N 40°29' E 013°39'714.8
2019-Jul-16 23:30N 40°31' E 013°30'714.9
2019-Jul-16 23:01N 40°33' E 013°20'6814.6
2019-Jul-16 18:22N 40°58' E 011°57'10615.1
2019-Jul-16 11:22N 41°20' E 009°39'615.5
2019-Jul-16 11:00N 41°21' E 009°32'714.6
2019-Jul-16 10:30N 41°21' E 009°22'713.9
2019-Jul-16 10:01N 41°17' E 009°14'29618.2
2019-Jul-15 17:43N 41°16' E 002°40'419.0
2019-Jul-15 17:30N 41°16' E 002°35'918.8
2019-Jul-15 17:00N 41°15' E 002°22'815.2
2019-Jul-15 16:30N 41°15' E 002°12'510.5
2019-Jul-15 16:00N 41°20' E 002°10'1 2.4
2019-Jul-15 15:26N 41°22' E 002°11'0 0.0
2019-Jul-15 14:56N 41°22' E 002°11'0 0.0
2019-Jul-15 14:26N 41°22' E 002°11'0 0.0
2019-Jul-15 13:56N 41°22' E 002°11'0 0.0
2019-Jul-15 13:26N 41°22' E 002°11'0 0.0
2019-Jul-15 12:56N 41°22' E 002°11'0 0.0
2019-Jul-15 12:26N 41°22' E 002°11'0 0.0
2019-Jul-15 11:56N 41°22' E 002°11'0 0.0
2019-Jul-15 11:26N 41°22' E 002°11'0 0.0
2019-Jul-15 10:56N 41°22' E 002°11'0 0.0
2019-Jul-15 10:26N 41°22' E 002°11'0 0.0
2019-Jul-15 09:56N 41°22' E 002°11'0 0.0
2019-Jul-15 09:26N 41°22' E 002°11'0 0.0
2019-Jul-15 08:56N 41°22' E 002°11'0 0.0
2019-Jul-15 08:26N 41°22' E 002°11'0 0.0
2019-Jul-15 07:56N 41°22' E 002°11'0 0.0
2019-Jul-15 07:26N 41°22' E 002°11'0 0.0
2019-Jul-15 06:56N 41°22' E 002°11'0 0.0
2019-Jul-15 06:26N 41°22' E 002°11'0 0.0
2019-Jul-15 05:56N 41°22' E 002°11'0 0.1
2019-Jul-15 05:31N 41°22' E 002°11'1 2.2
2019-Jul-15 05:00N 41°21' E 002°10'3 6.6
2019-Jul-15 04:30N 41°17' E 002°11'4 8.1
2019-Jul-15 04:01N 41°17' E 002°16'510.0
2019-Jul-15 03:31N 41°18' E 002°23'612.2
2019-Jul-15 03:00N 41°20' E 002°30'917.4
2019-Jul-15 02:31N 41°22' E 002°42'917.9
2019-Jul-15 02:00N 41°26' E 002°52'918.0
2019-Jul-15 01:30N 41°31' E 003°02'917.7
2019-Jul-15 01:00N 41°36' E 003°13'1117.8
2019-Jul-15 00:24N 41°42' E 003°25'13818.7
2019-Jul-14 17:02N 43°01' E 005°57'411.8
2019-Jul-14 16:41N 43°05' E 005°57'1 6.8
2019-Jul-14 16:30N 43°05' E 005°56'2 2.9
2019-Jul-14 15:55N 43°07' E 005°56'0 0.0
2019-Jul-14 15:25N 43°07' E 005°56'0 0.0
2019-Jul-14 14:58N 43°07' E 005°56'0 0.0
2019-Jul-14 14:28N 43°07' E 005°56'0 0.0
2019-Jul-14 13:58N 43°07' E 005°56'0 0.0
2019-Jul-14 13:25N 43°07' E 005°56'0 0.0
2019-Jul-14 12:58N 43°07' E 005°56'0 0.0
2019-Jul-14 12:28N 43°07' E 005°56'0 0.0
2019-Jul-14 11:55N 43°07' E 005°56'0 0.0
2019-Jul-14 11:25N 43°07' E 005°56'0 0.0
2019-Jul-14 10:58N 43°07' E 005°56'0 0.0
2019-Jul-14 10:25N 43°07' E 005°56'0 0.0
2019-Jul-14 09:55N 43°07' E 005°56'0 0.0
2019-Jul-14 09:28N 43°07' E 005°56'0 0.0
2019-Jul-14 08:58N 43°07' E 005°56'0 0.0
2019-Jul-14 08:25N 43°07' E 005°56'0 0.0
2019-Jul-14 07:58N 43°07' E 005°56'0 0.0
2019-Jul-14 07:25N 43°07' E 005°56'0 0.0
2019-Jul-14 06:58N 43°07' E 005°56'0 0.0
2019-Jul-14 06:30N 43°07' E 005°56'0 0.8
2019-Jul-14 06:01N 43°07' E 005°55'2 4.4
2019-Jul-14 05:31N 43°05' E 005°58'3913.0
2019-Jul-14 02:33N 42°57' E 006°49'117.4
2019-Jul-14 02:30N 42°57' E 006°50'917.0
2019-Jul-14 02:00N 42°59' E 007°02'816.8
2019-Jul-14 01:30N 42°60' E 007°13'816.9
2019-Jul-14 01:00N 43°01' E 007°24'816.9
2019-Jul-14 00:31N 43°03' E 007°36'817.0
2019-Jul-14 00:01N 43°04' E 007°47'918.3
2019-Jul-13 23:30N 43°05' E 007°60'919.0
2019-Jul-13 23:00N 43°07' E 008°13'918.9
2019-Jul-13 22:30N 43°08' E 008°25'918.8
2019-Jul-13 22:01N 43°10' E 008°38'918.3
2019-Jul-13 21:31N 43°11' E 008°50'918.1
2019-Jul-13 21:00N 43°13' E 009°03'918.1
2019-Jul-13 20:30N 43°14' E 009°15'917.9
2019-Jul-13 20:00N 43°16' E 009°27'918.2
2019-Jul-13 19:30N 43°17' E 009°39'918.4
2019-Jul-13 19:00N 43°19' E 009°52'917.7
2019-Jul-13 18:30N 43°23' E 010°03'918.2
2019-Jul-13 18:00N 43°30' E 010°10'611.0
2019-Jul-13 17:30N 43°32' E 010°17'1 1.7
2019-Jul-13 17:00N 43°33' E 010°18'0 0.0
2019-Jul-13 16:30N 43°33' E 010°18'0 0.0
2019-Jul-13 16:00N 43°33' E 010°18'0 0.0
2019-Jul-13 15:30N 43°33' E 010°18'0 0.0
2019-Jul-13 15:00N 43°33' E 010°18'0 0.0
2019-Jul-13 14:27N 43°33' E 010°18'0 0.0
2019-Jul-13 14:00N 43°33' E 010°18'0 0.0
2019-Jul-13 13:30N 43°33' E 010°18'0 0.0
2019-Jul-13 13:00N 43°33' E 010°18'0 0.0
2019-Jul-13 12:30N 43°33' E 010°18'0 0.0
2019-Jul-13 12:00N 43°33' E 010°18'0 0.0
2019-Jul-13 11:30N 43°33' E 010°18'0 0.0
2019-Jul-13 11:00N 43°33' E 010°18'0 0.0
2019-Jul-13 10:30N 43°33' E 010°18'0 0.0
2019-Jul-13 10:00N 43°33' E 010°18'0 0.0
2019-Jul-13 09:30N 43°33' E 010°18'0 0.0
2019-Jul-13 09:00N 43°33' E 010°18'0 0.0
2019-Jul-13 08:27N 43°33' E 010°18'0 0.0
2019-Jul-13 08:00N 43°33' E 010°18'0 0.0
2019-Jul-13 07:30N 43°33' E 010°18'0 0.0
2019-Jul-13 07:00N 43°33' E 010°18'0 0.0
2019-Jul-13 06:27N 43°33' E 010°18'0 0.0
2019-Jul-13 06:00N 43°33' E 010°18'0 0.0
2019-Jul-13 05:30N 43°33' E 010°18'0 0.0
2019-Jul-13 05:00N 43°33' E 010°18'0 0.1
2019-Jul-13 04:30N 43°33' E 010°18'2 3.9
2019-Jul-13 04:00N 43°32' E 010°16'5 9.9
2019-Jul-13 03:30N 43°28' E 010°12'510.9
2019-Jul-13 03:00N 43°22' E 010°10'714.9
2019-Jul-13 02:30N 43°15' E 010°09'815.3
2019-Jul-13 02:00N 43°07' E 010°07'815.0
2019-Jul-13 01:30N 43°00' E 010°06'715.0
2019-Jul-13 01:00N 42°53' E 010°04'815.0
2019-Jul-13 00:30N 42°45' E 010°03'815.1
2019-Jul-13 00:00N 42°39' E 010°09'714.6
2019-Jul-12 23:30N 42°33' E 010°16'714.5
2019-Jul-12 23:00N 42°28' E 010°22'714.8
2019-Jul-12 22:30N 42°22' E 010°28'815.3
2019-Jul-12 21:59N 42°15' E 010°34'713.8
2019-Jul-12 21:30N 42°09' E 010°37'815.5
2019-Jul-12 21:00N 42°02' E 010°42'816.1
2019-Jul-12 20:30N 42°01' E 010°52'916.3
2019-Jul-12 19:59N 41°59' E 011°04'919.1
2019-Jul-12 19:29N 41°58' E 011°17'12 0.7
2019-Jul-12 02:44N 41°58' E 011°32'2 9.2
2019-Jul-12 02:30N 41°57' E 011°30'9 9.2
2019-Jul-12 01:29N 41°52' E 011°19'6 9.4
2019-Jul-12 00:53N 41°49' E 011°13'4 9.7
2019-Jul-12 00:30N 41°46' E 011°09'5 9.5
2019-Jul-12 00:00N 41°43' E 011°04'5 9.3
2019-Jul-11 23:26N 41°40' E 010°58'4 8.9
2019-Jul-11 22:59N 41°38' E 010°54'5 9.2
2019-Jul-11 22:30N 41°35' E 010°49'5 9.4
2019-Jul-11 21:58N 41°32' E 010°44'5 9.2
2019-Jul-11 21:27N 41°29' E 010°39'4 9.3
2019-Jul-11 21:00N 41°27' E 010°35'7 9.3
2019-Jul-11 20:13N 41°22' E 010°28'3 9.0
2019-Jul-11 19:54N 41°20' E 010°25'4 9.1
2019-Jul-11 19:30N 41°18' E 010°21'5 9.3
2019-Jul-11 19:00N 41°16' E 010°15'5 9.4
2019-Jul-11 18:30N 41°13' E 010°10'5 9.5
2019-Jul-11 18:00N 41°10' E 010°05'9 9.5
2019-Jul-11 17:02N 41°04' E 009°56'8 9.2
2019-Jul-11 16:13N 40°60' E 009°48'2 7.9
2019-Jul-11 16:00N 40°59' E 009°46'3 6.6
2019-Jul-11 15:30N 40°58' E 009°42'4 7.1
2019-Jul-11 14:53N 40°56' E 009°36'181 9.1
2019-Jul-10 18:55N 40°40' E 013°35'819.0
2019-Jul-10 18:30N 40°39' E 013°45'918.7
2019-Jul-10 18:00N 40°38' E 013°58'917.8
2019-Jul-10 17:30N 40°41' E 014°09'816.6
2019-Jul-10 17:00N 40°48' E 014°16'3 5.3
2019-Jul-10 16:30N 40°50' E 014°16'0 0.5
2019-Jul-10 16:00N 40°50' E 014°16'0 0.0
2019-Jul-10 15:30N 40°50' E 014°16'0 0.0
2019-Jul-10 15:00N 40°50' E 014°16'0 0.0
2019-Jul-10 14:30N 40°50' E 014°16'0 0.0
2019-Jul-10 14:00N 40°50' E 014°16'0 0.0
2019-Jul-10 13:30N 40°50' E 014°16'  

Dump ship's entire track history